logo tempoitalia

Diretta Meteo Spencer, Stati Uniti (USA)lunedì 31 agosto ore 00:53

Mappa
Sereno 22 °C Sereno 24 Ore: T.min 19 T.max 32
Ponente Sud Km/h 11.1 Punto di rugiada: 21 °C Umidità: 94% Visibilità: 10 Km
Il sole sorge alle: 06:44 Il sole tramonta alle: 19:57
31 Agosto 2026 00:53 tempo osservato: Sereno Sereno 22 94 1009 vento: Nord S 11.1
30 Agosto 2026 23:53 tempo osservato: Sereno Sereno 22 94 1009 vento: Nord S 7.4
30 Agosto 2026 22:53 tempo osservato: Sereno Sereno 23 88 1009 vento: Nord S 11.1
30 Agosto 2026 21:53 tempo osservato: Sereno Sereno 23 88 1009 vento: Nord S 13
30 Agosto 2026 20:53 tempo osservato: Sereno Sereno 24 83 1009 vento: Nord S/SE 11.1
30 Agosto 2026 19:53 tempo osservato: Sereno Sereno 26 78 1008 vento: Nord S 11.1
30 Agosto 2026 18:53 tempo osservato: Sereno Sereno 28 69 1008 vento: Nord S 14.8
30 Agosto 2026 17:53 tempo osservato: Sereno Sereno 30 58 1008 vento: Nord S 24
30 Agosto 2026 16:53 tempo osservato: Sereno Sereno 32 52 1007 vento: Nord S 24
30 Agosto 2026 15:53 tempo osservato: Sereno Sereno 31 55 1007 vento: Nord S 22.2
30 Agosto 2026 14:53 tempo osservato: Sereno Sereno 32 52 1008 vento: Nord S 24
30 Agosto 2026 13:53 tempo osservato: Sereno Sereno 31 55 1008 vento: Nord S 22.2
30 Agosto 2026 12:53 tempo osservato: Sereno Sereno 29 58 1008 vento: Nord S 20.3
30 Agosto 2026 11:53 tempo osservato: Sereno Sereno 29 58 1008 vento: Nord S 11.1
30 Agosto 2026 10:53 tempo osservato: Sereno Sereno 29 58 1009 vento: Nord S 18.5
30 Agosto 2026 09:53 tempo osservato: Poco Nuvoloso Poco Nuvoloso 26 73 1008 vento: Nord SO 9.3
30 Agosto 2026 08:53 tempo osservato: Sereno Sereno 24 78 1008 vento: Nord S 7.4
30 Agosto 2026 07:53 tempo osservato: Sereno Sereno 20 93 1008 vento: Nord E 7.4
30 Agosto 2026 06:53 tempo osservato: Sereno Sereno 19 93 1008 vento: Nord SE 9.3
30 Agosto 2026 05:53 tempo osservato: Sereno Sereno 19 100 1008 vento: Nord E 7.4
30 Agosto 2026 04:53 tempo osservato: Sereno Sereno 19 100 1008 vento: Nord E/NE 7.4
30 Agosto 2026 03:53 tempo osservato: Sereno Sereno 19 100 1008 vento: Nord E/NE 9.3
30 Agosto 2026 02:53 tempo osservato: Sereno Sereno 19 100 1008 vento: Nord E 7.4
30 Agosto 2026 01:53 tempo osservato: Sereno Sereno 21 100 1008 vento: Nord N 5.5